Time;durP1;ratioP1;P1;durP2;ratioP2;P2;SDS_P1;SDS_P2;PMS_P1;PMS_P2;Temp;Humidity;BMP_temperature;BMP_pressure;BME280_temperature;BME280_humidity;BME280_pressure;Samples;Min_cycle;Max_cycle;Signal;HPM_P1;HPM_P2
2023/04/21 00:02:26;;;;;;;26.60;14.75;;;;;;;7.67;100.00;101805.03;4976745;28;20144;-73
2023/04/21 00:04:52;;;;;;;26.08;13.98;;;;;;;7.67;100.00;101802.38;4972389;28;20053;-73
2023/04/21 00:07:19;;;;;;;28.05;14.23;;;;;;;7.69;100.00;101802.38;4980892;28;20046;-73
2023/04/21 00:09:44;;;;;;;25.40;14.05;;;;;;;7.68;100.00;101790.94;4979469;28;20041;-73
2023/04/21 00:12:18;;;;;;;27.40;15.23;;;;;;;7.68;100.00;101787.44;4979489;28;20033;-73
2023/04/21 00:14:44;;;;;;;25.92;14.90;;;;;;;7.70;100.00;101783.00;4978487;28;20040;-73
2023/04/21 00:17:09;;;;;;;26.33;14.27;;;;;;;7.70;100.00;101778.63;4979276;28;20638;-72
2023/04/21 00:19:35;;;;;;;27.90;14.48;;;;;;;7.69;100.00;101779.50;4979713;28;20038;-72
2023/04/21 00:22:02;;;;;;;25.70;14.00;;;;;;;7.69;100.00;101782.13;4977863;28;20157;-73
2023/04/21 00:24:27;;;;;;;26.75;14.45;;;;;;;7.68;100.00;101775.13;4977335;28;20060;-71
2023/04/21 00:26:53;;;;;;;28.08;15.50;;;;;;;7.66;100.00;101774.28;4976341;28;20319;-72
2023/04/21 00:29:18;;;;;;;25.38;14.48;;;;;;;7.66;100.00;101763.75;4976999;28;20598;-72
2023/04/21 00:31:44;;;;;;;25.73;14.52;;;;;;;7.65;100.00;101756.75;4977463;28;20118;-72
2023/04/21 00:34:10;;;;;;;24.30;14.18;;;;;;;7.66;100.00;101745.28;4979931;28;20455;-71
2023/04/21 00:36:35;;;;;;;25.50;13.90;;;;;;;7.64;100.00;101741.84;4979265;28;20049;-72
2023/04/21 00:39:01;;;;;;;28.40;14.45;;;;;;;7.63;100.00;101740.06;4980762;28;20038;-71
2023/04/21 00:41:27;;;;;;;22.83;12.95;;;;;;;7.64;100.00;101735.69;4980476;28;20044;-71
2023/04/21 00:44:04;;;;;;;25.58;13.60;;;;;;;7.63;100.00;101729.53;4996250;28;20049;-71
2023/04/21 00:46:29;;;;;;;25.92;13.82;;;;;;;7.61;100.00;101718.16;4998269;28;20052;-71
2023/04/21 00:48:56;;;;;;;23.35;13.93;;;;;;;7.62;100.00;101714.63;4962889;28;20042;-72
2023/04/21 00:51:22;;;;;;;25.75;13.77;;;;;;;7.60;100.00;101716.41;4984308;28;20394;-72
2023/04/21 00:53:48;;;;;;;25.35;12.98;;;;;;;7.56;100.00;101712.97;4984129;28;20038;-71
2023/04/21 00:56:14;;;;;;;24.58;13.02;;;;;;;7.55;100.00;101705.09;4979250;28;20037;-71
2023/04/21 00:58:41;;;;;;;21.85;12.45;;;;;;;7.52;100.00;101707.78;4979225;28;20099;-71
2023/04/21 01:01:07;;;;;;;20.10;11.82;;;;;;;7.51;100.00;101692.88;4979847;28;20465;-71
2023/04/21 01:03:33;;;;;;;23.00;11.70;;;;;;;7.51;100.00;101692.88;4982165;28;20053;-71
2023/04/21 01:05:59;;;;;;;21.70;11.85;;;;;;;7.46;100.00;101688.56;4978397;28;20046;-72
2023/04/21 01:08:25;;;;;;;20.25;11.52;;;;;;;7.46;100.00;101685.03;4979124;28;20637;-71
2023/04/21 01:10:53;;;;;;;23.27;12.02;;;;;;;7.42;100.00;101681.59;4981259;28;20143;-72
2023/04/21 01:13:22;;;;;;;22.67;12.07;;;;;;;7.39;100.00;101673.78;4976481;28;22020;-71
2023/04/21 01:15:48;;;;;;;24.88;11.75;;;;;;;7.37;100.00;101680.84;4977557;28;20589;-72
2023/04/21 01:18:13;;;;;;;22.30;11.63;;;;;;;7.36;100.00;101673.84;4980023;28;20049;-71
2023/04/21 01:20:39;;;;;;;22.33;11.70;;;;;;;7.35;100.00;101677.34;4997185;28;20393;-72
2023/04/21 01:23:06;;;;;;;21.83;11.60;;;;;;;7.33;100.00;101680.03;4963836;28;20033;-73
2023/04/21 01:25:32;;;;;;;20.63;10.93;;;;;;;7.31;100.00;101675.69;4981737;28;20443;-72
2023/04/21 01:27:57;;;;;;;21.10;12.50;;;;;;;7.30;100.00;101673.94;4980230;28;20037;-73
2023/04/21 01:30:23;;;;;;;21.02;11.13;;;;;;;7.28;100.00;101675.72;4981450;28;20848;-72
2023/04/21 01:32:49;;;;;;;22.40;12.15;;;;;;;7.26;100.00;101673.13;4996793;28;20081;-72
2023/04/21 01:35:14;;;;;;;20.10;11.77;;;;;;;7.24;100.00;101668.78;4982529;28;20742;-72
2023/04/21 01:37:40;;;;;;;20.40;11.63;;;;;;;7.22;100.00;101671.44;4976334;28;20107;-72
2023/04/21 01:40:08;;;;;;;20.00;12.02;;;;;;;7.19;100.00;101676.75;4984274;28;20485;-73
2023/04/21 01:42:42;;;;;;;19.73;11.68;;;;;;;7.17;100.00;101678.56;4999374;28;21777;-72
2023/04/21 01:45:08;;;;;;;18.90;12.40;;;;;;;7.17;100.00;101674.16;4976972;28;21301;-72
2023/04/21 01:47:34;;;;;;;21.73;11.07;;;;;;;7.17;100.00;101679.44;4980139;28;20121;-72
2023/04/21 01:49:59;;;;;;;20.63;11.00;;;;;;;7.15;100.00;101667.19;4976007;28;20042;-73
2023/04/21 01:52:25;;;;;;;21.55;11.40;;;;;;;7.13;100.00;101672.47;4980024;28;20420;-73
2023/04/21 01:54:51;;;;;;;18.85;11.63;;;;;;;7.11;100.00;101671.63;4982348;28;20042;-73
2023/04/21 01:57:16;;;;;;;23.40;11.38;;;;;;;7.08;100.00;101666.41;4981417;28;20040;-73
2023/04/21 01:59:42;;;;;;;20.10;11.38;;;;;;;7.06;100.00;101657.69;4964205;28;20041;-72
2023/04/21 02:02:08;;;;;;;23.25;11.52;;;;;;;7.04;100.00;101667.38;4978652;28;20033;-72
2023/04/21 02:04:34;;;;;;;22.58;11.82;;;;;;;7.02;100.00;101669.16;4979994;28;20747;-73
2023/04/21 02:07:00;;;;;;;20.15;11.10;;;;;;;6.98;100.00;101664.84;4982006;28;20091;-73
2023/04/21 02:09:26;;;;;;;21.40;12.38;;;;;;;6.95;100.00;101667.50;4993761;28;20678;-72
2023/04/21 02:11:51;;;;;;;18.02;11.07;;;;;;;6.92;100.00;101669.31;4977835;28;21146;-72
2023/04/21 02:14:17;;;;;;;21.38;12.13;;;;;;;6.90;100.00;101671.13;4979493;28;21482;-72
2023/04/21 02:16:42;;;;;;;19.33;11.55;;;;;;;6.89;100.00;101671.13;4982479;28;20042;-73
2023/04/21 02:19:08;;;;;;;21.00;12.32;;;;;;;6.87;100.00;101657.97;4995554;28;20041;-72
2023/04/21 02:21:34;;;;;;;20.30;11.48;;;;;;;6.85;100.00;101657.16;4978743;28;20038;-73
2023/04/21 02:24:00;;;;;;;19.52;11.63;;;;;;;6.83;100.00;101660.69;4981179;28;20030;-73
2023/04/21 02:26:25;;;;;;;21.10;12.35;;;;;;;6.82;100.00;101662.47;4996152;28;20046;-73
2023/04/21 02:28:51;;;;;;;19.15;12.13;;;;;;;6.83;100.00;101655.44;4976588;28;20073;-72
2023/04/21 02:31:17;;;;;;;21.85;12.68;;;;;;;6.83;100.00;101652.81;4980362;28;20828;-73
2023/04/21 02:33:43;;;;;;;20.33;11.45;;;;;;;6.82;100.00;101649.31;4975604;28;20046;-72
2023/04/21 02:36:09;;;;;;;20.08;11.57;;;;;;;6.85;100.00;101645.75;4979849;28;20148;-72
2023/04/21 02:38:35;;;;;;;22.23;12.20;;;;;;;6.83;100.00;101647.53;4982178;28;20451;-72
2023/04/21 02:41:00;;;;;;;25.13;12.13;;;;;;;6.83;100.00;101648.41;4983476;28;20038;-72
2023/04/21 02:43:25;;;;;;;21.55;11.73;;;;;;;6.82;100.00;101646.69;4977506;28;20061;-72
2023/04/21 02:45:51;;;;;;;21.27;12.13;;;;;;;6.82;100.00;101641.44;4981924;28;20053;-72
2023/04/21 02:48:21;;;;;;;21.27;11.75;;;;;;;6.80;100.00;101630.03;4977790;28;20120;-73
2023/04/21 02:50:52;;;;;;;18.73;12.00;;;;;;;6.80;100.00;101632.66;4980319;28;20405;-72
2023/04/21 02:53:20;;;;;;;22.05;10.93;;;;;;;6.81;100.00;101629.13;4981990;28;20054;-73
2023/04/21 02:55:46;;;;;;;23.92;11.07;;;;;;;6.81;100.00;101637.03;4980392;28;20120;-73
2023/04/21 02:58:11;;;;;;;19.27;10.75;;;;;;;6.80;100.00;101630.03;4993078;28;20261;-73
2023/04/21 03:00:37;;;;;;;21.98;11.35;;;;;;;6.79;100.00;101630.94;4980442;28;21413;-73
2023/04/21 03:03:03;;;;;;;23.95;11.77;;;;;;;6.79;100.00;101630.94;4974103;28;20042;-73
2023/04/21 03:05:28;;;;;;;20.92;11.18;;;;;;;6.80;100.00;101630.03;4962771;28;20053;-73
2023/04/21 03:07:54;;;;;;;20.85;10.45;;;;;;;6.81;100.00;101628.28;4977635;28;20049;-72
2023/04/21 03:10:20;;;;;;;24.50;11.57;;;;;;;6.79;100.00;101625.66;4979475;28;20065;-73
2023/04/21 03:12:45;;;;;;;21.95;11.20;;;;;;;6.79;100.00;101621.28;4976142;28;20095;-73
2023/04/21 03:15:13;;;;;;;24.05;11.15;;;;;;;6.79;100.00;101620.41;4979110;28;20030;-73
2023/04/21 03:17:41;;;;;;;19.17;10.73;;;;;;;6.78;100.00;101613.41;4976196;28;20030;-73
2023/04/21 03:20:07;;;;;;;23.45;10.80;;;;;;;6.78;100.00;101630.09;4993734;28;20040;-73
2023/04/21 03:22:34;;;;;;;21.80;12.05;;;;;;;6.81;100.00;101617.75;4977894;28;20060;-73
2023/04/21 03:25:00;;;;;;;22.60;12.02;;;;;;;6.81;100.00;101617.75;4993365;28;20022;-72
2023/04/21 03:27:26;;;;;;;23.40;10.38;;;;;;;6.81;100.00;101618.59;4977663;28;20029;-73
2023/04/21 03:29:51;;;;;;;20.48;11.80;;;;;;;6.82;100.00;101607.22;4978530;28;20046;-74
2023/04/21 03:32:17;;;;;;;18.95;10.85;;;;;;;6.84;100.00;101618.56;4980087;28;20822;-73
2023/04/21 03:34:42;;;;;;;21.33;11.50;;;;;;;6.81;100.00;101613.34;4977581;28;20404;-73
2023/04/21 03:37:07;;;;;;;20.60;10.70;;;;;;;6.81;100.00;101618.59;4979866;28;20042;-73
2023/04/21 03:39:33;;;;;;;20.80;11.20;;;;;;;6.80;100.00;101608.97;4974509;28;20037;-73
2023/04/21 03:41:58;;;;;;;19.88;10.65;;;;;;;6.80;100.00;101619.50;4981307;28;20386;-73
2023/04/21 03:44:26;;;;;;;19.15;11.90;;;;;;;6.79;100.00;101610.75;4980072;28;20946;-73
2023/04/21 03:46:53;;;;;;;21.17;11.85;;;;;;;6.78;100.00;101605.50;4976614;28;20448;-73
2023/04/21 03:49:18;;;;;;;18.00;10.73;;;;;;;6.77;100.00;101616.94;4975391;28;20097;-75
2023/04/21 03:51:44;;;;;;;24.48;11.43;;;;;;;6.76;100.00;101616.06;4977322;28;20052;-74
2023/04/21 03:54:09;;;;;;;17.20;10.70;;;;;;;6.76;100.00;101620.47;4980487;28;20045;-74
2023/04/21 03:56:35;;;;;;;18.42;10.38;;;;;;;6.75;100.00;101613.47;4962745;28;20048;-74
2023/04/21 03:59:01;;;;;;;17.92;10.07;;;;;;;6.74;100.00;101615.22;4978410;28;21656;-73
2023/04/21 04:01:26;;;;;;;19.05;10.80;;;;;;;6.77;100.00;101616.94;4992258;28;20136;-73
2023/04/21 04:03:52;;;;;;;20.67;11.50;;;;;;;6.79;100.00;101617.78;4978839;28;20038;-73
2023/04/21 04:06:17;;;;;;;23.17;12.10;;;;;;;6.82;100.00;101630.91;4977530;28;20487;-73
2023/04/21 04:08:43;;;;;;;19.65;10.27;;;;;;;6.86;100.00;101631.72;4978250;28;20042;-73
2023/04/21 04:11:08;;;;;;;16.58;10.18;;;;;;;6.89;100.00;101629.00;4980354;28;20053;-73
2023/04/21 04:13:34;;;;;;;19.25;10.18;;;;;;;6.92;100.00;101621.06;4977274;28;20045;-73
2023/04/21 04:16:00;;;;;;;19.65;11.20;;;;;;;6.97;100.00;101639.41;4949543;28;20041;-73
2023/04/21 04:18:25;;;;;;;18.02;11.07;;;;;;;7.04;100.00;101634.00;4979599;28;20037;-72
2023/04/21 04:20:51;;;;;;;17.30;10.35;;;;;;;7.10;100.00;101629.53;4979707;28;20042;-72
2023/04/21 04:23:16;;;;;;;20.95;10.20;;;;;;;7.18;100.00;101632.88;4989908;28;20481;-73
2023/04/21 04:25:42;;;;;;;16.25;10.60;;;;;;;7.25;100.00;101644.19;4976712;28;20464;-72
2023/04/21 04:28:08;;;;;;;18.52;9.90;;;;;;;7.29;100.00;101635.31;4981514;28;20515;-73
2023/04/21 04:30:34;;;;;;;17.70;10.35;;;;;;;7.33;100.00;101637.88;4991076;28;20042;-73
2023/04/21 04:33:00;;;;;;;18.02;10.43;;;;;;;7.36;100.00;101641.34;4973092;28;20448;-72
2023/04/21 04:35:25;;;;;;;21.17;10.75;;;;;;;7.38;100.00;101644.81;4976937;28;20034;-72
2023/04/21 04:37:52;;;;;;;18.90;9.35;;;;;;;7.39;100.00;101646.53;4979111;28;20810;-72
2023/04/21 04:40:19;;;;;;;17.38;9.90;;;;;;;7.41;100.00;101656.16;4974707;28;20042;-73
2023/04/21 04:42:45;;;;;;;18.15;9.63;;;;;;;7.41;100.00;101650.03;4978627;28;20615;-73
2023/04/21 04:45:12;;;;;;;19.17;10.43;;;;;;;7.43;100.00;101654.38;4942262;28;20038;-73
2023/04/21 04:47:38;;;;;;;17.02;10.10;;;;;;;7.42;100.00;101649.97;4993717;28;20120;-72
2023/04/21 04:50:05;;;;;;;18.92;10.10;;;;;;;7.43;100.00;101664.03;4979388;28;20591;-73
2023/04/21 04:52:31;;;;;;;17.38;10.40;;;;;;;7.41;100.00;101657.94;4989600;28;20036;-73
2023/04/21 04:54:57;;;;;;;18.40;10.07;;;;;;;7.41;100.00;101661.41;4981488;28;20034;-73
2023/04/21 04:57:22;;;;;;;16.23;9.18;;;;;;;7.41;100.00;101658.78;4981167;28;20081;-73
2023/04/21 04:59:48;;;;;;;18.15;10.23;;;;;;;7.43;100.00;101664.91;4978501;28;20061;-73
2023/04/21 05:02:13;;;;;;;19.95;9.68;;;;;;;7.45;100.00;101663.13;4979887;28;20217;-73
2023/04/21 05:04:39;;;;;;;16.63;9.45;;;;;;;7.46;100.00;101672.75;4977402;28;21721;-73
2023/04/21 05:07:06;;;;;;;14.25;9.18;;;;;;;7.49;100.00;101669.19;4981848;28;20157;-74
2023/04/21 05:09:33;;;;;;;17.95;10.20;;;;;;;7.51;100.00;101661.25;4984556;28;20599;-73
2023/04/21 05:11:59;;;;;;;16.05;9.48;;;;;;;7.52;100.00;101653.31;4982948;28;20085;-73
2023/04/21 05:14:25;;;;;;;16.25;9.73;;;;;;;7.56;100.00;101664.66;4962306;28;20771;-73
2023/04/21 05:16:51;;;;;;;16.63;9.95;;;;;;;7.56;100.00;101660.25;4979776;28;20053;-73
2023/04/21 05:19:17;;;;;;;16.45;8.98;;;;;;;7.60;100.00;101661.97;4977742;28;20045;-74
2023/04/21 05:21:42;;;;;;;16.08;9.77;;;;;;;7.63;100.00;101671.53;4975753;28;20038;-73
2023/04/21 05:24:08;;;;;;;15.25;8.95;;;;;;;7.65;100.00;101667.13;4992990;28;20132;-73
2023/04/21 05:26:33;;;;;;;17.50;9.82;;;;;;;7.69;100.00;101665.28;4979500;28;20045;-73
2023/04/21 05:28:59;;;;;;;15.00;9.18;;;;;;;7.72;100.00;101665.22;4978235;28;20046;-73
2023/04/21 05:31:25;;;;;;;15.85;8.73;;;;;;;7.73;100.00;101667.84;4978612;28;20555;-74
2023/04/21 05:33:50;;;;;;;14.32;8.82;;;;;;;7.75;100.00;101667.81;4986865;28;20030;-73
2023/04/21 05:36:16;;;;;;;17.25;9.35;;;;;;;7.75;100.00;101666.03;4975673;28;20686;-73
2023/04/21 05:38:41;;;;;;;16.42;8.98;;;;;;;7.77;100.00;101665.13;4977470;28;20422;-73
2023/04/21 05:41:07;;;;;;;15.23;9.27;;;;;;;7.78;100.00;101669.53;4979981;28;21975;-73
2023/04/21 05:43:33;;;;;;;16.10;8.80;;;;;;;7.81;100.00;101670.31;4979049;28;20137;-73
2023/04/21 05:46:00;;;;;;;13.80;8.75;;;;;;;7.83;100.00;101662.38;4979251;28;20093;-73
2023/04/21 05:48:25;;;;;;;16.42;8.63;;;;;;;7.86;100.00;101659.69;4975389;28;20041;-73
2023/04/21 05:50:51;;;;;;;14.57;8.82;;;;;;;7.87;100.00;101659.66;4979157;28;20489;-72
2023/04/21 05:53:16;;;;;;;15.80;8.93;;;;;;;7.91;100.00;101664.84;4991701;28;20041;-73
2023/04/21 05:55:42;;;;;;;18.70;9.65;;;;;;;7.93;100.00;101669.19;4995539;28;20429;-73
2023/04/21 05:58:08;;;;;;;15.85;8.63;;;;;;;7.96;100.00;101663.84;4988590;28;20045;-72
2023/04/21 06:00:33;;;;;;;15.88;8.35;;;;;;;7.99;100.00;101668.19;4985623;28;20046;-73
2023/04/21 06:02:59;;;;;;;16.80;9.27;;;;;;;8.03;100.00;101667.22;4967967;28;20061;-72
2023/04/21 06:05:24;;;;;;;12.40;8.18;;;;;;;8.08;100.00;101670.66;4985843;28;20103;-73
2023/04/21 06:07:50;;;;;;;12.98;8.90;;;;;;;8.13;100.00;101670.53;4984430;28;20045;-73
2023/04/21 06:10:16;;;;;;;11.60;7.63;;;;;;;8.18;100.00;101671.31;4987049;28;20402;-73
2023/04/21 06:12:42;;;;;;;12.50;7.88;;;;;;;8.22;100.00;101666.84;4982695;28;20046;-74
2023/04/21 06:15:08;;;;;;;13.38;7.60;;;;;;;8.29;100.00;101666.63;4985883;28;20053;-73
2023/04/21 06:17:33;;;;;;;15.85;8.45;;;;;;;8.40;100.00;101665.53;4986697;28;20444;-73
2023/04/21 06:19:59;;;;;;;12.82;8.27;;;;;;;8.53;100.00;101659.09;4987135;28;20532;-73
2023/04/21 06:22:24;;;;;;;15.32;8.63;;;;;;;8.65;100.00;101657.94;4983113;28;20718;-73
2023/04/21 06:24:50;;;;;;;17.83;8.60;;;;;;;8.74;100.00;101654.22;4999724;28;20037;-73
2023/04/21 06:27:16;;;;;;;13.32;7.43;;;;;;;8.81;100.00;101653.16;4983253;28;20250;-73
2023/04/21 06:29:42;;;;;;;14.23;8.32;;;;;;;8.90;100.00;101645.88;4982297;28;20223;-73
2023/04/21 06:32:08;;;;;;;13.20;7.63;;;;;;;8.95;100.00;101638.72;4982994;28;20061;-73
2023/04/21 06:34:34;;;;;;;16.85;8.27;;;;;;;9.03;100.00;101646.44;4984647;28;20041;-73
2023/04/21 06:36:59;;;;;;;12.75;7.80;;;;;;;9.12;100.00;101640.03;4983103;28;20543;-73
2023/04/21 06:39:25;;;;;;;14.85;8.43;;;;;;;9.15;100.00;101637.34;4985798;28;20504;-73
2023/04/21 06:41:51;;;;;;;13.30;8.05;;;;;;;9.24;100.00;101645.00;4986331;28;20092;-73
2023/04/21 06:44:16;;;;;;;14.20;8.18;;;;;;;9.33;100.00;101634.16;4985667;28;20496;-72
2023/04/21 06:46:42;;;;;;;12.13;8.10;;;;;;;9.45;100.00;101637.38;5000924;28;20262;-73
2023/04/21 06:49:08;;;;;;;13.05;7.60;;;;;;;9.58;100.00;101644.06;4986422;28;20037;-73
2023/04/21 06:51:33;;;;;;;12.18;7.82;;;;;;;9.67;100.00;101637.66;4980040;28;20418;-73
2023/04/21 06:54:00;;;;;;;15.93;8.02;;;;;;;9.78;100.00;101645.28;4996892;28;20068;-73
2023/04/21 06:56:26;;;;;;;13.60;7.60;;;;;;;9.91;100.00;101637.81;4986034;28;20044;-73
2023/04/21 06:58:52;;;;;;;11.90;8.43;;;;;;;9.99;100.00;101632.31;4985864;28;20045;-73
2023/04/21 07:01:17;;;;;;;13.73;7.75;;;;;;;10.06;100.00;101639.16;4985844;28;20046;-72
2023/04/21 07:03:43;;;;;;;12.55;8.02;;;;;;;10.10;100.00;101630.22;4988811;28;20094;-72
2023/04/21 07:06:09;;;;;;;12.50;7.72;;;;;;;10.17;100.00;101634.41;4984269;28;20107;-73
2023/04/21 07:08:35;;;;;;;13.48;7.70;;;;;;;10.24;100.00;101635.06;4985285;28;20088;-73
2023/04/21 07:11:01;;;;;;;13.32;7.63;;;;;;;10.31;100.00;101638.41;4985162;28;20588;-72
2023/04/21 07:13:27;;;;;;;12.57;7.55;;;;;;;10.31;100.00;101633.94;4968347;28;20176;-73
2023/04/21 07:15:52;;;;;;;11.57;7.75;;;;;;;10.37;100.00;101642.63;4985740;28;20026;-72
2023/04/21 07:18:18;;;;;;;14.52;7.90;;;;;;;10.41;100.00;101634.53;4983286;28;20057;-72
2023/04/21 07:20:43;;;;;;;14.38;8.07;;;;;;;10.48;100.00;101639.66;4985201;28;20038;-73
2023/04/21 07:23:09;;;;;;;11.23;7.15;;;;;;;10.51;100.00;101650.16;4985661;28;20151;-73
2023/04/21 07:25:35;;;;;;;13.43;7.40;;;;;;;10.51;100.00;101643.06;4985035;28;20559;-72
2023/04/21 07:28:02;;;;;;;13.88;7.93;;;;;;;10.51;100.00;101629.00;4999133;28;20048;-73
2023/04/21 07:30:28;;;;;;;13.23;7.72;;;;;;;10.52;100.00;101638.66;4982159;28;20041;-73
2023/04/21 07:32:54;;;;;;;11.02;7.13;;;;;;;10.51;100.00;101644.88;4984942;28;20034;-73
2023/04/21 07:35:20;;;;;;;12.93;7.35;;;;;;;10.53;100.00;101637.75;4985385;28;20041;-73
2023/04/21 07:37:46;;;;;;;11.52;7.25;;;;;;;10.51;100.00;101645.72;4985298;28;20127;-73
2023/04/21 07:40:11;;;;;;;12.15;7.65;;;;;;;10.52;100.00;101636.00;4998698;28;20529;-74
2023/04/21 07:42:37;;;;;;;11.82;7.30;;;;;;;10.55;100.00;101639.44;4982748;28;20073;-72
2023/04/21 07:45:03;;;;;;;11.68;7.20;;;;;;;10.55;100.00;101641.19;4999900;28;20034;-73
2023/04/21 07:47:29;;;;;;;15.15;8.00;;;;;;;10.53;100.00;101640.38;4983053;28;20041;-73
2023/04/21 07:49:55;;;;;;;13.55;7.65;;;;;;;10.59;100.00;101637.53;4953923;28;20058;-73
2023/04/21 07:52:20;;;;;;;17.00;8.02;;;;;;;10.64;100.00;101640.91;4960731;28;20040;-74
2023/04/21 07:54:46;;;;;;;13.20;7.38;;;;;;;10.70;100.00;101643.34;4975223;28;20626;-75
2023/04/21 07:57:11;;;;;;;13.05;7.65;;;;;;;10.73;100.00;101634.41;4980134;28;20082;-75
2023/04/21 07:59:37;;;;;;;11.98;7.78;;;;;;;10.78;100.00;101621.03;4977907;28;20038;-74
2023/04/21 08:02:02;;;;;;;14.77;7.57;;;;;;;10.86;100.00;101634.88;4979011;28;20037;-73
2023/04/21 08:04:28;;;;;;;12.50;8.10;;;;;;;10.99;100.00;101624.72;4975531;28;20053;-73
2023/04/21 08:06:54;;;;;;;10.95;7.00;;;;;;;11.07;100.00;101621.81;4980736;28;20034;-73
2023/04/21 08:09:19;;;;;;;11.07;7.90;;;;;;;11.13;100.00;101626.91;4991934;28;20025;-73
2023/04/21 08:11:46;;;;;;;13.52;7.82;;;;;;;11.14;100.00;101624.19;4976243;28;20089;-73
2023/04/21 08:14:12;;;;;;;11.98;7.40;;;;;;;11.15;100.00;101619.75;4979369;28;20114;-73
2023/04/21 08:16:39;;;;;;;11.85;6.82;;;;;;;11.22;100.00;101621.25;4978530;28;20402;-72
2023/04/21 08:19:06;;;;;;;10.98;7.45;;;;;;;11.35;100.00;101618.19;4978001;28;20454;-72
2023/04/21 08:21:32;;;;;;;12.27;6.93;;;;;;;11.48;100.00;101611.50;4995825;28;20033;-72
2023/04/21 08:23:58;;;;;;;13.63;7.25;;;;;;;11.63;100.00;101612.72;4979825;28;20503;-72
2023/04/21 08:26:24;;;;;;;13.52;7.93;;;;;;;11.82;100.00;101609.34;4980876;28;20038;-72
2023/04/21 08:28:51;;;;;;;13.63;8.15;;;;;;;12.01;100.00;101609.50;4982346;28;20033;-72
2023/04/21 08:31:17;;;;;;;10.73;6.90;;;;;;;12.18;100.00;101611.53;4979305;28;20140;-72
2023/04/21 08:33:43;;;;;;;11.38;7.28;;;;;;;12.40;100.00;101604.47;4977503;28;20463;-72
2023/04/21 08:36:10;;;;;;;12.73;7.43;;;;;;;12.43;100.00;101601.72;4994451;28;20034;-72
2023/04/21 08:38:41;;;;;;;12.45;7.22;;;;;;;12.44;100.00;101606.97;4979982;28;20615;-72
2023/04/21 08:41:07;;;;;;;11.57;7.40;;;;;;;12.48;100.00;101600.56;4963544;28;20141;-72
2023/04/21 08:43:32;;;;;;;12.45;7.82;;;;;;;12.48;100.00;101602.38;4992345;28;21656;-72
2023/04/21 08:45:58;;;;;;;14.95;7.68;;;;;;;12.49;100.00;101607.63;4979983;28;20654;-72
2023/04/21 08:48:25;;;;;;;12.50;7.10;;;;;;;12.52;100.00;101596.00;4977470;28;20170;-72
2023/04/21 08:50:51;;;;;;;10.57;7.38;;;;;;;12.54;100.00;101596.81;4974579;28;20046;-72
2023/04/21 08:53:16;;;;;;;12.43;7.43;;;;;;;12.57;100.00;101591.38;4965026;28;20095;-72
2023/04/21 08:55:43;;;;;;;11.80;7.15;;;;;;;12.62;100.00;101594.69;4936840;28;20125;-72
2023/04/21 08:58:08;;;;;;;12.95;7.38;;;;;;;12.59;100.00;101594.81;4962023;28;20712;-72
2023/04/21 09:00:38;;;;;;;14.13;7.50;;;;;;;12.55;100.00;101585.25;4962828;28;20065;-71
2023/04/21 09:03:06;;;;;;;12.52;7.40;;;;;;;12.54;100.00;101585.31;4978881;28;21334;-72
2023/04/21 09:05:33;;;;;;;15.50;7.70;;;;;;;12.52;100.00;101584.53;4985882;28;20046;-72
2023/04/21 09:08:11;;;;;;;9.88;7.20;;;;;;;12.53;100.00;101583.59;4961744;28;20046;-72
2023/04/21 09:10:50;;;;;;;13.27;7.53;;;;;;;12.58;100.00;101571.84;4976103;28;20092;-72
2023/04/21 09:13:17;;;;;;;13.32;7.10;;;;;;;12.63;100.00;101571.63;4994697;28;20045;-72
2023/04/21 09:15:45;;;;;;;11.13;7.90;;;;;;;12.70;100.00;101574.91;4977759;28;20037;-72
2023/04/21 09:18:15;;;;;;;13.68;7.47;;;;;;;12.79;100.00;101571.84;4979270;28;20054;-72
2023/04/21 09:20:42;;;;;;;12.07;7.25;;;;;;;12.87;100.00;101579.50;4980610;28;20044;-72
2023/04/21 09:23:09;;;;;;;11.77;7.60;;;;;;;12.93;100.00;101581.00;4976272;28;21612;-72
2023/04/21 09:25:41;;;;;;;11.00;7.35;;;;;;;12.95;100.00;101576.50;4989221;28;21705;-72
2023/04/21 09:28:12;;;;;;;12.93;7.40;;;;;;;12.97;100.00;101574.66;4979769;28;20092;-72
2023/04/21 09:30:39;;;;;;;11.23;7.50;;;;;;;13.06;100.00;101565.41;4980306;28;20201;-72
2023/04/21 09:33:05;;;;;;;12.30;7.57;;;;;;;13.09;100.00;101571.44;4986154;28;20131;-72
2023/04/21 09:35:35;;;;;;;11.90;7.55;;;;;;;13.14;100.00;101574.75;4985316;28;20393;-72
2023/04/21 09:38:01;;;;;;;13.85;7.35;;;;;;;13.22;100.00;101568.22;4965124;28;20038;-72
2023/04/21 09:40:28;;;;;;;11.02;6.93;;;;;;;13.27;100.00;101569.75;4984213;28;20546;-72
2023/04/21 09:42:57;;;;;;;13.60;7.25;;;;;;;13.30;100.00;101563.44;4983512;28;20065;-72
2023/04/21 09:45:26;;;;;;;11.77;7.00;;;;;;;13.34;100.00;101569.47;4981702;28;20335;-72
2023/04/21 09:48:00;;;;;;;9.65;6.90;;;;;;;13.38;100.00;101577.25;4983601;28;20076;-72
2023/04/21 09:50:26;;;;;;;10.90;6.35;;;;;;;13.46;100.00;101568.06;4981885;28;20520;-73
2023/04/21 09:52:53;;;;;;;12.95;7.53;;;;;;;13.47;100.00;101565.34;4982035;28;20068;-73
2023/04/21 09:55:25;;;;;;;11.68;7.03;;;;;;;13.47;100.00;101559.16;4979121;28;20663;-73
2023/04/21 09:57:51;;;;;;;10.70;7.17;;;;;;;13.52;100.00;101546.53;4983637;28;20406;-73
2023/04/21 10:00:17;;;;;;;10.80;6.70;;;;;;;13.57;100.00;101550.69;4982246;28;20046;-73
2023/04/21 10:02:47;;;;;;;9.75;6.90;;;;;;;13.68;100.00;101555.50;4976879;28;20077;-74
2023/04/21 10:05:13;;;;;;;12.45;7.18;;;;;;;13.78;100.00;101544.44;4980878;28;20181;-73
2023/04/21 10:07:39;;;;;;;10.73;6.63;;;;;;;13.89;100.00;101554.56;4964339;28;20124;-73
2023/04/21 10:10:16;;;;;;;12.45;7.32;;;;;;;13.94;100.00;101541.91;4982620;28;20622;-73
2023/04/21 10:12:43;;;;;;;12.15;7.30;;;;;;;14.05;100.00;101542.22;4999828;28;20034;-73
2023/04/21 10:15:34;;;;;;;10.73;6.82;;;;;;;14.25;100.00;101543.03;4966997;28;21413;-73
2023/04/21 10:18:22;;;;;;;14.90;6.60;;;;;;;14.30;100.00;101542.78;4949358;28;20041;-72
2023/04/21 10:20:56;;;;;;;10.85;6.85;;;;;;;14.38;100.00;101544.13;4982106;28;20053;-73
2023/04/21 10:23:25;;;;;;;9.50;5.93;;;;;;;14.42;100.00;101534.19;4981714;28;20069;-73
2023/04/21 10:25:51;;;;;;;12.60;7.00;;;;;;;14.45;99.68;101542.03;4994957;28;20045;-73
2023/04/21 10:28:19;;;;;;;11.30;6.93;;;;;;;14.42;100.00;101531.53;4981655;28;20112;-73
2023/04/21 10:30:45;;;;;;;10.05;7.05;;;;;;;14.52;100.00;101531.91;4983074;28;21223;-73
2023/04/21 10:33:10;;;;;;;12.43;7.30;;;;;;;14.55;100.00;101522.91;4977424;28;20049;-72
2023/04/21 10:35:59;;;;;;;9.82;7.10;;;;;;;14.57;100.00;101521.03;4979470;28;20038;-73
2023/04/21 10:38:39;;;;;;;9.90;6.70;;;;;;;14.59;100.00;101508.50;4949228;28;20690;-73
2023/04/21 10:41:30;;;;;;;10.40;6.85;;;;;;;14.65;100.00;101510.81;4983027;28;20038;-73
2023/04/21 10:44:00;;;;;;;11.30;6.75;;;;;;;14.68;100.00;101505.34;4979864;28;20040;-72
2023/04/21 10:46:39;;;;;;;15.27;7.30;;;;;;;14.71;100.00;101504.31;4977111;28;20042;-72
2023/04/21 10:49:11;;;;;;;8.98;6.68;;;;;;;14.70;100.00;101498.13;4981050;28;20537;-72
2023/04/21 10:51:58;;;;;;;8.68;6.97;;;;;;;14.66;98.67;101497.41;4980913;28;20030;-72
2023/04/21 10:54:25;;;;;;;10.77;6.53;;;;;;;14.74;100.00;101501.50;4982308;28;20034;-74
2023/04/21 10:56:57;;;;;;;11.43;6.90;;;;;;;14.79;100.00;101497.69;4983699;28;20042;-73
2023/04/21 10:59:23;;;;;;;12.45;6.80;;;;;;;14.76;100.00;101492.50;4985576;28;20128;-73
2023/04/21 11:01:49;;;;;;;10.00;6.82;;;;;;;14.75;100.00;101485.44;4973122;28;20119;-73
2023/04/21 11:04:19;;;;;;;11.60;6.68;;;;;;;14.81;100.00;101486.91;4986148;28;20044;-73
2023/04/21 11:07:09;;;;;;;12.50;7.25;;;;;;;14.89;100.00;101476.72;4941617;28;20109;-73
2023/04/21 11:09:36;;;;;;;11.10;7.10;;;;;;;14.96;100.00;101479.91;4930426;28;20034;-73
2023/04/21 11:12:10;;;;;;;9.35;6.82;;;;;;;14.96;100.00;101474.59;4946584;28;20678;-73